Wetterstation Vordersexau
Wetterdaten: Woche 23.01.23 - 29.01.23 (KW4)
Datum Zeit Temp. A. Feuchte A. Luftdruck Regen Wind Richtung Taupunkt Windchill Windben
23.01.2023 00:00 -0,1 C 96 % 1024,2 hPa 0,0 l/m 0,0 km/h (0 Bft) N -0,7 C -0,1 C 0,0 km/h (0 Bft)
23.01.2023 01:00 -0,1 C 96 % 1023,8 hPa 0,0 l/m 0,0 km/h (0 Bft) N -0,7 C -0,1 C 0,0 km/h (0 Bft)
23.01.2023 02:00 -0,1 C 96 % 1024,0 hPa 0,0 l/m 0,0 km/h (0 Bft) N -0,7 C -0,1 C 0,0 km/h (0 Bft)
23.01.2023 03:00 0,2 C 85 % 1024,1 hPa 0,0 l/m 1,1 km/h (1 Bft) NO -2,0 C 0,2 C 2,5 km/h (1 Bft)
23.01.2023 04:00 1,2 C 79 % 1024,1 hPa 0,0 l/m 3,6 km/h (1 Bft) N-NO -2,0 C 1,2 C 6,1 km/h (2 Bft)
23.01.2023 05:00 1,5 C 78 % 1024,0 hPa 0,0 l/m 2,5 km/h (1 Bft) NO -1,9 C 1,5 C 3,6 km/h (1 Bft)
23.01.2023 06:00 1,5 C 77 % 1024,0 hPa 0,0 l/m 1,1 km/h (1 Bft) O-NO -2,1 C 1,5 C 3,6 km/h (1 Bft)
23.01.2023 07:00 1,4 C 73 % 1024,4 hPa 0,0 l/m 5,0 km/h (1 Bft) NO -2,9 C 1,4 C 7,2 km/h (2 Bft)
23.01.2023 08:00 1,3 C 72 % 1025,1 hPa 0,0 l/m 3,6 km/h (1 Bft) NO -3,2 C 1,3 C 6,1 km/h (2 Bft)
23.01.2023 09:00 1,7 C 70 % 1024,8 hPa 0,0 l/m 1,1 km/h (1 Bft) NO -3,2 C 1,7 C 2,5 km/h (1 Bft)
23.01.2023 10:00 2,2 C 70 % 1024,6 hPa 0,0 l/m 2,5 km/h (1 Bft) O-NO -2,7 C 2,2 C 3,6 km/h (1 Bft)
23.01.2023 11:00 2,4 C 73 % 1024,6 hPa 0,0 l/m 6,1 km/h (2 Bft) O-NO -1,9 C 2,4 C 9,7 km/h (2 Bft)
23.01.2023 12:00 4,1 C 69 % 1024,2 hPa 0,0 l/m 7,2 km/h (2 Bft) O-NO -1,1 C 3,4 C 11,2 km/h (2 Bft)
23.01.2023 13:00 3,7 C 69 % 1023,7 hPa 0,0 l/m 2,5 km/h (1 Bft) N-NO -1,4 C 3,7 C 6,1 km/h (2 Bft)
23.01.2023 14:00 3,3 C 72 % 1023,1 hPa 0,0 l/m 3,6 km/h (1 Bft) NO -1,3 C 3,3 C 6,1 km/h (2 Bft)
23.01.2023 15:00 3,3 C 74 % 1022,7 hPa 0,0 l/m 3,6 km/h (1 Bft) N-NO -0,9 C 3,3 C 6,1 km/h (2 Bft)
23.01.2023 16:00 3,4 C 74 % 1022,9 hPa 0,0 l/m 2,5 km/h (1 Bft) NO -0,8 C 3,4 C 3,6 km/h (1 Bft)
23.01.2023 17:00 3,2 C 77 % 1023,4 hPa 0,0 l/m 1,1 km/h (1 Bft) NO -0,4 C 3,2 C 3,6 km/h (1 Bft)
23.01.2023 18:00 3,2 C 78 % 1023,8 hPa 0,0 l/m 2,5 km/h (1 Bft) NO -0,3 C 3,2 C 6,1 km/h (2 Bft)
23.01.2023 19:00 3,3 C 80 % 1023,9 hPa 0,0 l/m 5,0 km/h (1 Bft) N-NO 0,2 C 3,3 C 7,2 km/h (2 Bft)
23.01.2023 20:00 3,2 C 81 % 1023,8 hPa 0,0 l/m 5,0 km/h (1 Bft) N-NW 0,3 C 3,2 C 9,7 km/h (2 Bft)
23.01.2023 21:00 3,2 C 82 % 1024,2 hPa 0,0 l/m 3,6 km/h (1 Bft) W 0,4 C 3,2 C 6,1 km/h (2 Bft)
23.01.2023 22:00 3,0 C 84 % 1023,8 hPa 0,0 l/m 5,0 km/h (1 Bft) NW 0,6 C 3,0 C 7,2 km/h (2 Bft)
23.01.2023 23:00 3,0 C 84 % 1023,9 hPa 0,0 l/m 2,5 km/h (1 Bft) N-NW 0,6 C 3,0 C 3,6 km/h (1 Bft)
24.01.2023 00:00 3,3 C 84 % 1024,1 hPa 0,0 l/m 5,0 km/h (1 Bft) N-NW 0,9 C 3,3 C 9,7 km/h (2 Bft)
24.01.2023 01:00 3,7 C 82 % 1024,2 hPa 0,0 l/m 2,5 km/h (1 Bft) N-NO 0,9 C 3,7 C 3,6 km/h (1 Bft)
24.01.2023 02:00 3,8 C 82 % 1024,2 hPa 0,0 l/m 3,6 km/h (1 Bft) NO 1,0 C 3,8 C 6,1 km/h (2 Bft)
24.01.2023 03:00 4,0 C 81 % 1024,4 hPa 0,0 l/m 2,5 km/h (1 Bft) NO 1,0 C 4,0 C 7,2 km/h (2 Bft)
24.01.2023 04:00 3,9 C 81 % 1024,7 hPa 0,0 l/m 2,5 km/h (1 Bft) S-SO 0,9 C 3,9 C 3,6 km/h (1 Bft)
24.01.2023 05:00 2,3 C 90 % 1025,2 hPa 0,0 l/m 5,0 km/h (1 Bft) N 0,8 C 2,3 C 7,2 km/h (2 Bft)
24.01.2023 06:00 2,5 C 90 % 1025,5 hPa 0,0 l/m 0,0 km/h (0 Bft) W 1,0 C 2,5 C 2,5 km/h (1 Bft)
24.01.2023 07:00 2,6 C 89 % 1026,1 hPa 0,0 l/m 1,1 km/h (1 Bft) S-SO 1,0 C 2,6 C 2,5 km/h (1 Bft)
24.01.2023 08:00 2,4 C 90 % 1026,5 hPa 0,0 l/m 3,6 km/h (1 Bft) N-NO 0,9 C 2,4 C 6,1 km/h (2 Bft)
24.01.2023 09:00 4,0 C 81 % 1027,1 hPa 0,0 l/m 1,1 km/h (1 Bft) N-NO 1,0 C 4,0 C 3,6 km/h (1 Bft)
24.01.2023 10:00 4,7 C 78 % 1027,3 hPa 0,0 l/m 6,1 km/h (2 Bft) N-NO 1,2 C 4,7 C 9,7 km/h (2 Bft)
24.01.2023 11:00 5,3 C 78 % 1027,5 hPa 0,0 l/m 1,1 km/h (1 Bft) N 1,8 C 5,3 C 2,5 km/h (1 Bft)
24.01.2023 12:00 5,4 C 76 % 1027,3 hPa 0,0 l/m 3,6 km/h (1 Bft) O-NO 1,5 C 5,4 C 9,7 km/h (2 Bft)
24.01.2023 13:00 5,7 C 76 % 1026,9 hPa 0,0 l/m 2,5 km/h (1 Bft) NO 1,8 C 5,7 C 6,1 km/h (2 Bft)
24.01.2023 14:00 5,5 C 76 % 1026,7 hPa 0,0 l/m 3,6 km/h (1 Bft) N-NO 1,6 C 5,5 C 6,1 km/h (2 Bft)
24.01.2023 15:00 5,4 C 77 % 1027,0 hPa 0,0 l/m 3,6 km/h (1 Bft) O-NO 1,7 C 5,4 C 7,2 km/h (2 Bft)
24.01.2023 16:00 4,9 C 79 % 1027,5 hPa 0,0 l/m 3,6 km/h (1 Bft) N-NO 1,6 C 4,9 C 7,2 km/h (2 Bft)
24.01.2023 17:00 4,7 C 80 % 1027,8 hPa 0,0 l/m 5,0 km/h (1 Bft) NO 1,6 C 4,7 C 11,2 km/h (2 Bft)
24.01.2023 18:00 4,6 C 80 % 1028,2 hPa 0,0 l/m 1,1 km/h (1 Bft) N 1,5 C 4,6 C 2,5 km/h (1 Bft)
24.01.2023 19:00 4,2 C 83 % 1028,3 hPa 0,0 l/m 0,0 km/h (0 Bft) NO 1,6 C 4,2 C 0,0 km/h (0 Bft)
24.01.2023 20:00 4,3 C 81 % 1028,3 hPa 0,0 l/m 1,1 km/h (1 Bft) N-NW 1,3 C 4,3 C 6,1 km/h (2 Bft)
24.01.2023 21:00 3,3 C 89 % 1028,3 hPa 0,0 l/m 1,1 km/h (1 Bft) N 1,7 C 3,3 C 2,5 km/h (1 Bft)
24.01.2023 22:00 2,8 C 93 % 1028,5 hPa 0,0 l/m 0,0 km/h (0 Bft) N 1,8 C 2,8 C 2,5 km/h (1 Bft)
24.01.2023 23:00 2,7 C 93 % 1028,6 hPa 0,0 l/m 0,0 km/h (0 Bft) N-NW 1,7 C 2,7 C 0,0 km/h (0 Bft)
25.01.2023 00:00 2,6 C 93 % 1028,2 hPa 0,0 l/m 1,1 km/h (1 Bft) N-NW 1,6 C 2,6 C 2,5 km/h (1 Bft)
25.01.2023 01:00 2,4 C 95 % 1027,8 hPa 0,0 l/m 0,0 km/h (0 Bft) N 1,7 C 2,4 C 2,5 km/h (1 Bft)
25.01.2023 02:00 2,2 C 95 % 1027,3 hPa 0,0 l/m 0,0 km/h (0 Bft) N 1,5 C 2,2 C 0,0 km/h (0 Bft)
25.01.2023 03:00 2,0 C 95 % 1027,3 hPa 0,0 l/m 0,0 km/h (0 Bft) N 1,3 C 2,0 C 0,0 km/h (0 Bft)
25.01.2023 04:00 1,9 C 96 % 1026,9 hPa 0,0 l/m 0,0 km/h (0 Bft) N 1,3 C 1,9 C 0,0 km/h (0 Bft)
25.01.2023 05:00 1,8 C 96 % 1027,0 hPa 0,0 l/m 0,0 km/h (0 Bft) N 1,2 C 1,8 C 0,0 km/h (0 Bft)
25.01.2023 06:00 1,7 C 96 % 1026,3 hPa 0,0 l/m 0,0 km/h (0 Bft) N 1,1 C 1,7 C 0,0 km/h (0 Bft)
25.01.2023 07:00 1,0 C 96 % 1026,5 hPa 0,0 l/m 0,0 km/h (0 Bft) N-NW 0,4 C 1,0 C 0,0 km/h (0 Bft)
25.01.2023 08:00 0,9 C 97 % 1026,1 hPa 0,0 l/m 1,1 km/h (1 Bft) N 0,5 C 0,9 C 2,5 km/h (1 Bft)
25.01.2023 09:00 1,9 C 97 % 1025,9 hPa 0,0 l/m 0,0 km/h (0 Bft) N 1,5 C 1,9 C 0,0 km/h (0 Bft)
25.01.2023 10:00 2,4 C 95 % 1025,6 hPa 0,0 l/m 0,0 km/h (0 Bft) NW 1,7 C 2,4 C 0,0 km/h (0 Bft)
25.01.2023 11:00 3,0 C 92 % 1025,4 hPa 0,0 l/m 1,1 km/h (1 Bft) N 1,8 C 3,0 C 2,5 km/h (1 Bft)
25.01.2023 12:00 3,8 C 90 % 1024,9 hPa 0,0 l/m 0,0 km/h (0 Bft) N-NO 2,3 C 3,8 C 0,0 km/h (0 Bft)
25.01.2023 13:00 4,5 C 81 % 1023,7 hPa 0,0 l/m 1,1 km/h (1 Bft) NO 1,5 C 4,5 C 3,6 km/h (1 Bft)
25.01.2023 14:00 4,6 C 80 % 1023,0 hPa 0,0 l/m 5,0 km/h (1 Bft) N-NO 1,5 C 4,6 C 9,7 km/h (2 Bft)
25.01.2023 15:00 4,2 C 81 % 1022,4 hPa 0,0 l/m 2,5 km/h (1 Bft) NW 1,2 C 4,2 C 6,1 km/h (2 Bft)
25.01.2023 16:00 3,7 C 84 % 1022,2 hPa 0,0 l/m 1,1 km/h (1 Bft) W-NW 1,3 C 3,7 C 3,6 km/h (1 Bft)
25.01.2023 17:00 3,1 C 86 % 1021,5 hPa 0,0 l/m 3,6 km/h (1 Bft) NW 1,0 C 3,1 C 9,7 km/h (2 Bft)
25.01.2023 18:00 2,1 C 92 % 1021,4 hPa 0,0 l/m 1,1 km/h (1 Bft) W 0,9 C 2,1 C 3,6 km/h (1 Bft)
25.01.2023 19:00 1,8 C 94 % 1021,2 hPa 0,0 l/m 2,5 km/h (1 Bft) W-NW 0,9 C 1,8 C 6,1 km/h (2 Bft)
25.01.2023 20:00 1,6 C 94 % 1020,7 hPa 0,0 l/m 2,5 km/h (1 Bft) W-NW 0,7 C 1,6 C 3,6 km/h (1 Bft)
25.01.2023 21:00 1,4 C 94 % 1020,2 hPa 0,0 l/m 1,1 km/h (1 Bft) N 0,5 C 1,4 C 2,5 km/h (1 Bft)
25.01.2023 22:00 1,3 C 94 % 1019,8 hPa 0,0 l/m 0,0 km/h (0 Bft) W 0,4 C 1,3 C 2,5 km/h (1 Bft)
25.01.2023 23:00 1,1 C 94 % 1019,3 hPa 0,0 l/m 1,1 km/h (1 Bft) NW 0,2 C 1,1 C 2,5 km/h (1 Bft)
26.01.2023 00:00 1,0 C 94 % 1019,0 hPa 0,0 l/m 1,1 km/h (1 Bft) W-NW 0,1 C 1,0 C 3,6 km/h (1 Bft)
26.01.2023 01:00 0,9 C 93 % 1018,4 hPa 0,0 l/m 2,5 km/h (1 Bft) W-NW -0,1 C 0,9 C 6,1 km/h (2 Bft)
26.01.2023 02:00 0,7 C 95 % 1017,7 hPa 0,0 l/m 1,1 km/h (1 Bft) W-NW -0,0 C 0,7 C 2,5 km/h (1 Bft)
26.01.2023 03:00 0,4 C 95 % 1017,5 hPa 0,0 l/m 1,1 km/h (1 Bft) W-NW -0,3 C 0,4 C 2,5 km/h (1 Bft)
26.01.2023 04:00 0,2 C 96 % 1017,1 hPa 0,0 l/m 2,5 km/h (1 Bft) N -0,4 C 0,2 C 6,1 km/h (2 Bft)
26.01.2023 05:00 0,2 C 96 % 1016,9 hPa 0,0 l/m 0,0 km/h (0 Bft) W-NW -0,4 C 0,2 C 0,0 km/h (0 Bft)
26.01.2023 06:00 0,1 C 96 % 1016,6 hPa 0,0 l/m 2,5 km/h (1 Bft) W-NW -0,5 C 0,1 C 3,6 km/h (1 Bft)
26.01.2023 07:00 0,2 C 94 % 1016,6 hPa 0,0 l/m 3,6 km/h (1 Bft) W-NW -0,6 C 0,2 C 7,2 km/h (2 Bft)
26.01.2023 08:00 -0,2 C 96 % 1016,6 hPa 0,0 l/m 1,1 km/h (1 Bft) N -0,8 C -0,2 C 2,5 km/h (1 Bft)
26.01.2023 09:00 -0,1 C 96 % 1016,6 hPa 0,0 l/m 0,0 km/h (0 Bft) W -0,7 C -0,1 C 2,5 km/h (1 Bft)
26.01.2023 10:00 0,2 C 97 % 1016,7 hPa 0,0 l/m 2,5 km/h (1 Bft) NW -0,2 C 0,2 C 3,6 km/h (1 Bft)
26.01.2023 11:00 0,6 C 90 % 1016,7 hPa 0,0 l/m 2,5 km/h (1 Bft) N-NW -0,8 C 0,6 C 3,6 km/h (1 Bft)
26.01.2023 12:00 0,8 C 88 % 1016,3 hPa 0,0 l/m 2,5 km/h (1 Bft) NO -1,0 C 0,8 C 3,6 km/h (1 Bft)
26.01.2023 13:00 0,8 C 87 % 1015,7 hPa 0,0 l/m 3,6 km/h (1 Bft) N-NO -1,1 C 0,8 C 6,1 km/h (2 Bft)
26.01.2023 14:00 0,8 C 87 % 1015,3 hPa 0,0 l/m 3,6 km/h (1 Bft) N -1,1 C 0,8 C 6,1 km/h (2 Bft)
26.01.2023 15:00 0,7 C 85 % 1015,5 hPa 0,0 l/m 2,5 km/h (1 Bft) N-NO -1,5 C 0,7 C 6,1 km/h (2 Bft)
26.01.2023 16:00 0,4 C 87 % 1015,8 hPa 0,0 l/m 3,6 km/h (1 Bft) N-NO -1,5 C 0,4 C 7,2 km/h (2 Bft)
26.01.2023 17:00 0,1 C 88 % 1016,0 hPa 0,0 l/m 2,5 km/h (1 Bft) N-NO -1,6 C 0,1 C 3,6 km/h (1 Bft)
26.01.2023 18:00 0,0 C 87 % 1016,2 hPa 0,0 l/m 2,5 km/h (1 Bft) N -1,9 C 0,0 C 6,1 km/h (2 Bft)
26.01.2023 19:00 -0,1 C 87 % 1016,1 hPa 0,0 l/m 2,5 km/h (1 Bft) N-NO -2,0 C -0,1 C 3,6 km/h (1 Bft)
26.01.2023 20:00 -0,2 C 89 % 1016,4 hPa 0,0 l/m 3,6 km/h (1 Bft) N-NW -1,8 C -0,2 C 3,6 km/h (1 Bft)
26.01.2023 21:00 -0,3 C 88 % 1016,3 hPa 0,0 l/m 2,5 km/h (1 Bft) N-NO -2,0 C -0,3 C 6,1 km/h (2 Bft)
26.01.2023 22:00 -0,6 C 85 % 1016,0 hPa 0,0 l/m 1,1 km/h (1 Bft) N-NO -2,8 C -0,6 C 3,6 km/h (1 Bft)
26.01.2023 23:00 -0,6 C 83 % 1015,8 hPa 0,0 l/m 1,1 km/h (1 Bft) N-NO -3,1 C -0,6 C 2,5 km/h (1 Bft)
27.01.2023 00:00 -0,7 C 84 % 1015,7 hPa 0,0 l/m 1,1 km/h (1 Bft) N-NO -3,1 C -0,7 C 3,6 km/h (1 Bft)
27.01.2023 01:00 -0,8 C 86 % 1015,1 hPa 0,0 l/m 0,0 km/h (0 Bft) W-NW -2,8 C -0,8 C 0,0 km/h (0 Bft)
27.01.2023 02:00 -1,0 C 89 % 1015,1 hPa 0,0 l/m 1,1 km/h (1 Bft) W-NW -2,6 C -1,0 C 2,5 km/h (1 Bft)
27.01.2023 03:00 -1,2 C 91 % 1014,7 hPa 0,0 l/m 1,1 km/h (1 Bft) N -2,5 C -1,2 C 3,6 km/h (1 Bft)
27.01.2023 04:00 -1,1 C 92 % 1014,7 hPa 0,0 l/m 0,0 km/h (0 Bft) N -2,2 C -1,1 C 2,5 km/h (1 Bft)
27.01.2023 05:00 -1,1 C 92 % 1015,1 hPa 0,0 l/m 0,0 km/h (0 Bft) N -2,2 C -1,1 C 0,0 km/h (0 Bft)
27.01.2023 06:00 -1,0 C 93 % 1015,1 hPa 0,0 l/m 0,0 km/h (0 Bft) N -2,0 C -1,0 C 2,5 km/h (1 Bft)
27.01.2023 07:00 -1,0 C 93 % 1015,3 hPa 0,0 l/m 0,0 km/h (0 Bft) W-NW -2,0 C -1,0 C 0,0 km/h (0 Bft)
27.01.2023 08:00 -1,0 C 93 % 1015,6 hPa 0,0 l/m 1,1 km/h (1 Bft) N -2,0 C -1,0 C 2,5 km/h (1 Bft)
27.01.2023 09:00 -0,6 C 92 % 1015,9 hPa 0,0 l/m 0,0 km/h (0 Bft) N-NO -1,7 C -0,6 C 0,0 km/h (0 Bft)
27.01.2023 10:00 0,3 C 82 % 1016,0 hPa 0,0 l/m 1,1 km/h (1 Bft) N-NO -2,4 C 0,3 C 6,1 km/h (2 Bft)
27.01.2023 11:00 0,6 C 80 % 1016,4 hPa 0,0 l/m 2,5 km/h (1 Bft) NO -2,4 C 0,6 C 3,6 km/h (1 Bft)
27.01.2023 12:00 1,1 C 77 % 1016,0 hPa 0,0 l/m 5,0 km/h (1 Bft) N-NO -2,5 C 1,1 C 9,7 km/h (2 Bft)
27.01.2023 13:00 1,5 C 75 % 1015,9 hPa 0,0 l/m 2,5 km/h (1 Bft) O-NO -2,4 C 1,5 C 6,1 km/h (2 Bft)
27.01.2023 14:00 3,4 C 71 % 1015,4 hPa 0,0 l/m 3,6 km/h (1 Bft) N-NO -1,3 C 3,4 C 6,1 km/h (2 Bft)
27.01.2023 15:00 1,7 C 74 % 1015,9 hPa 0,0 l/m 3,6 km/h (1 Bft) NO -2,4 C 1,7 C 6,1 km/h (2 Bft)
27.01.2023 16:00 1,2 C 77 % 1016,2 hPa 0,0 l/m 6,1 km/h (2 Bft) N-NO -2,4 C 1,2 C 11,2 km/h (2 Bft)
27.01.2023 17:00 0,9 C 78 % 1016,7 hPa 0,0 l/m 3,6 km/h (1 Bft) N-NO -2,5 C 0,9 C 6,1 km/h (2 Bft)
27.01.2023 18:00 0,8 C 79 % 1017,1 hPa 0,0 l/m 1,1 km/h (1 Bft) NO -2,4 C 0,8 C 3,6 km/h (1 Bft)
27.01.2023 19:00 0,8 C 79 % 1017,6 hPa 0,0 l/m 5,0 km/h (1 Bft) N-NO -2,4 C 0,8 C 7,2 km/h (2 Bft)
27.01.2023 20:00 0,7 C 80 % 1017,7 hPa 0,0 l/m 2,5 km/h (1 Bft) N-NO -2,3 C 0,7 C 6,1 km/h (2 Bft)
27.01.2023 21:00 0,7 C 79 % 1018,1 hPa 0,0 l/m 2,5 km/h (1 Bft) N-NO -2,5 C 0,7 C 3,6 km/h (1 Bft)
27.01.2023 22:00 0,8 C 78 % 1018,3 hPa 0,0 l/m 2,5 km/h (1 Bft) N-NO -2,6 C 0,8 C 3,6 km/h (1 Bft)
27.01.2023 23:00 0,8 C 79 % 1018,4 hPa 0,0 l/m 1,1 km/h (1 Bft) N-NW -2,4 C 0,8 C 2,5 km/h (1 Bft)
28.01.2023 00:00 0,8 C 80 % 1018,0 hPa 0,0 l/m 1,1 km/h (1 Bft) NO -2,2 C 0,8 C 2,5 km/h (1 Bft)
28.01.2023 01:00 0,9 C 81 % 1018,2 hPa 0,0 l/m 1,1 km/h (1 Bft) NO -2,0 C 0,9 C 3,6 km/h (1 Bft)
28.01.2023 02:00 1,0 C 80 % 1017,9 hPa 0,0 l/m 1,1 km/h (1 Bft) N-NO -2,1 C 1,0 C 2,5 km/h (1 Bft)
28.01.2023 03:00 1,2 C 80 % 1018,1 hPa 0,0 l/m 2,5 km/h (1 Bft) N-NO -1,9 C 1,2 C 3,6 km/h (1 Bft)
28.01.2023 04:00 1,2 C 79 % 1018,3 hPa 0,0 l/m 2,5 km/h (1 Bft) N-NO -2,0 C 1,2 C 3,6 km/h (1 Bft)
28.01.2023 05:00 1,2 C 79 % 1018,4 hPa 0,0 l/m 1,1 km/h (1 Bft) NO -2,0 C 1,2 C 3,6 km/h (1 Bft)
28.01.2023 06:00 1,3 C 79 % 1018,9 hPa 0,0 l/m 3,6 km/h (1 Bft) NO -1,9 C 1,3 C 7,2 km/h (2 Bft)
28.01.2023 07:00 1,5 C 78 % 1019,1 hPa 0,0 l/m 5,0 km/h (1 Bft) NO -1,9 C 1,5 C 7,2 km/h (2 Bft)
28.01.2023 08:00 1,6 C 78 % 1019,7 hPa 0,0 l/m 3,6 km/h (1 Bft) N-NO -1,8 C 1,6 C 6,1 km/h (2 Bft)
28.01.2023 09:00 2,0 C 74 % 1020,0 hPa 0,0 l/m 1,1 km/h (1 Bft) N-NO -2,1 C 2,0 C 3,6 km/h (1 Bft)
28.01.2023 10:00 2,4 C 73 % 1020,4 hPa 0,0 l/m 1,1 km/h (1 Bft) N -1,9 C 2,4 C 3,6 km/h (1 Bft)
28.01.2023 11:00 3,2 C 69 % 1020,4 hPa 0,0 l/m 5,0 km/h (1 Bft) N-NO -1,9 C 3,2 C 7,2 km/h (2 Bft)
28.01.2023 12:00 3,3 C 67 % 1020,1 hPa 0,0 l/m 5,0 km/h (1 Bft) N-NO -2,2 C 3,3 C 11,2 km/h (2 Bft)
28.01.2023 13:00 3,6 C 68 % 1020,0 hPa 0,0 l/m 5,0 km/h (1 Bft) N-NO -1,7 C 3,6 C 11,2 km/h (2 Bft)
28.01.2023 14:00 3,5 C 69 % 1020,1 hPa 0,0 l/m 5,0 km/h (1 Bft) O-NO -1,6 C 3,5 C 7,2 km/h (2 Bft)
28.01.2023 15:00 3,3 C 70 % 1020,5 hPa 0,0 l/m 2,5 km/h (1 Bft) N-NO -1,6 C 3,3 C 6,1 km/h (2 Bft)
28.01.2023 16:00 3,1 C 70 % 1021,3 hPa 0,0 l/m 5,0 km/h (1 Bft) N -1,8 C 3,1 C 9,7 km/h (2 Bft)
28.01.2023 17:00 2,8 C 73 % 1022,0 hPa 0,0 l/m 0,0 km/h (0 Bft) NO -1,5 C 2,8 C 2,5 km/h (1 Bft)
28.01.2023 18:00 2,8 C 73 % 1022,1 hPa 0,0 l/m 3,6 km/h (1 Bft) N -1,5 C 2,8 C 7,2 km/h (2 Bft)
28.01.2023 19:00 2,6 C 75 % 1022,5 hPa 0,0 l/m 0,0 km/h (0 Bft) N -1,4 C 2,6 C 2,5 km/h (1 Bft)
28.01.2023 20:00 2,4 C 76 % 1022,5 hPa 0,0 l/m 0,0 km/h (0 Bft) N -1,4 C 2,4 C 0,0 km/h (0 Bft)
28.01.2023 21:00 2,3 C 77 % 1022,8 hPa 0,0 l/m 0,0 km/h (0 Bft) N -1,3 C 2,3 C 2,5 km/h (1 Bft)
28.01.2023 22:00 1,9 C 83 % 1023,1 hPa 0,0 l/m 0,0 km/h (0 Bft) N -0,7 C 1,9 C 0,0 km/h (0 Bft)
28.01.2023 23:00 1,2 C 86 % 1023,0 hPa 0,0 l/m 0,0 km/h (0 Bft) N -0,9 C 1,2 C 0,0 km/h (0 Bft)
29.01.2023 00:00 1,8 C 82 % 1023,0 hPa 0,0 l/m 0,0 km/h (0 Bft) NO -0,9 C 1,8 C 2,5 km/h (1 Bft)
29.01.2023 01:00 2,1 C 79 % 1023,1 hPa 0,0 l/m 2,5 km/h (1 Bft) N -1,2 C 2,1 C 6,1 km/h (2 Bft)
29.01.2023 02:00 1,9 C 80 % 1023,1 hPa 0,0 l/m 0,0 km/h (0 Bft) N -1,2 C 1,9 C 0,0 km/h (0 Bft)
29.01.2023 03:00 0,1 C 88 % 1023,1 hPa 0,0 l/m 0,0 km/h (0 Bft) N -1,6 C 0,1 C 0,0 km/h (0 Bft)
29.01.2023 04:00 -0,4 C 90 % 1023,4 hPa 0,0 l/m 0,0 km/h (0 Bft) N -1,8 C -0,4 C 0,0 km/h (0 Bft)
29.01.2023 05:00 -0,5 C 90 % 1023,6 hPa 0,0 l/m 0,0 km/h (0 Bft) N -1,9 C -0,5 C 2,5 km/h (1 Bft)
29.01.2023 06:00 -1,3 C 92 % 1023,5 hPa 0,0 l/m 0,0 km/h (0 Bft) N-NO -2,4 C -1,3 C 0,0 km/h (0 Bft)
29.01.2023 07:00 -1,5 C 94 % 1023,0 hPa 0,0 l/m 2,5 km/h (1 Bft) N -2,3 C -1,5 C 3,6 km/h (1 Bft)
29.01.2023 08:00 -1,5 C 94 % 1024,0 hPa 0,0 l/m 0,0 km/h (0 Bft) N-NO -2,3 C -1,5 C 0,0 km/h (0 Bft)
29.01.2023 09:00 -0,5 C 89 % 1024,7 hPa 0,0 l/m 2,5 km/h (1 Bft) N-NO -2,1 C -0,5 C 3,6 km/h (1 Bft)
29.01.2023 10:00 -0,2 C 88 % 1024,9 hPa 0,0 l/m 2,5 km/h (1 Bft) N -1,9 C -0,2 C 3,6 km/h (1 Bft)
29.01.2023 11:00 0,9 C 83 % 1024,5 hPa 0,0 l/m 0,0 km/h (0 Bft) N-NO -1,7 C 0,9 C 0,0 km/h (0 Bft)
29.01.2023 12:00 2,7 C 70 % 1023,8 hPa 0,0 l/m 5,0 km/h (1 Bft) W -2,2 C 2,7 C 7,2 km/h (2 Bft)
29.01.2023 13:00 3,1 C 73 % 1023,3 hPa 0,0 l/m 2,5 km/h (1 Bft) W-SW -1,3 C 3,1 C 6,1 km/h (2 Bft)
29.01.2023 14:00 3,3 C 72 % 1022,5 hPa 0,0 l/m 3,6 km/h (1 Bft) W-NW -1,3 C 3,3 C 6,1 km/h (2 Bft)
29.01.2023 15:00 3,0 C 71 % 1022,4 hPa 0,0 l/m 6,1 km/h (2 Bft) W-NW -1,7 C 3,0 C 7,2 km/h (2 Bft)
29.01.2023 16:00 2,7 C 72 % 1022,6 hPa 0,0 l/m 1,1 km/h (1 Bft) N -1,8 C 2,7 C 3,6 km/h (1 Bft)
29.01.2023 17:00 1,5 C 76 % 1022,8 hPa 0,0 l/m 0,0 km/h (0 Bft) W-NW -2,3 C 1,5 C 0,0 km/h (0 Bft)
29.01.2023 18:00 -0,2 C 84 % 1022,8 hPa 0,0 l/m 2,5 km/h (1 Bft) NW -2,6 C -0,2 C 3,6 km/h (1 Bft)
29.01.2023 19:00 -1,6 C 88 % 1023,0 hPa 0,0 l/m 1,1 km/h (1 Bft) N -3,3 C -1,6 C 2,5 km/h (1 Bft)
29.01.2023 20:00 -2,1 C 89 % 1022,9 hPa 0,0 l/m 0,0 km/h (0 Bft) N -3,7 C -2,1 C 2,5 km/h (1 Bft)
29.01.2023 21:00 -2,5 C 91 % 1023,1 hPa 0,0 l/m 0,0 km/h (0 Bft) N -3,8 C -2,5 C 0,0 km/h (0 Bft)
29.01.2023 22:00 -2,5 C 91 % 1022,9 hPa 0,0 l/m 0,0 km/h (0 Bft) NW -3,8 C -2,5 C 2,5 km/h (1 Bft)
29.01.2023 23:00 -2,7 C 92 % 1022,5 hPa 0,0 l/m 1,1 km/h (1 Bft) NO -3,8 C -2,7 C 3,6 km/h (1 Bft)
Min-Datum _ 29.01.23 28.01.23 27.01.23 - 23.01.23 - 29.01.23 29.01.23 23.01.23
_ Min-Zeit 23:37 12:36 03:36 - 00:36 - 23:37 23:37 00:36
Minimum _ -2,7 C 67 % 1014,7 hPa - 0,0 km/h (0 Bft) - -3,8 C -2,7 C 0,0 km/h (0 Bft)
Max-Datum _ 24.01.23 25.01.23 24.01.23 23.01.23 23.01.23 - 25.01.23 24.01.23 23.01.23
_ Max-Zeit 13:36 08:36 23:36 00:36 12:36 - 12:36 13:36 12:36
Maximum _ 5,7 C 97 % 1028,6 hPa 0,0 l/m 7,2 km/h
O-NO (2 Bft)
- 2,3 C 5,7 C 11,2 km/h
O-NO (2 Bft)
Durchschnitt _ 1,6 C 84 % 1021,6 hPa #0,0 l/m 2,0 km/h (1 Bft) N-NO -0,9 C 1,6 C 4,1 km/h (1 Bft)
www.sexauwetter.de